Time;durP1;ratioP1;P1;durP2;ratioP2;P2;SDS_P1;SDS_P2;PMS_P1;PMS_P2;Temp;Humidity;BMP_temperature;BMP_pressure;BME280_temperature;BME280_humidity;BME280_pressure;Samples;Min_cycle;Max_cycle;Signal;HPM_P1;HPM_P2
2022/07/15 00:02:18;;;;;;;;;5.00;5.00;;;;;22.24;43.34;101533.00;5037957;28;45501;-67
2022/07/15 00:04:43;;;;;;;;;6.00;5.67;;;;;22.22;42.96;101524.16;5038162;28;45413;-66
2022/07/15 00:07:09;;;;;;;;;6.67;5.67;;;;;22.07;43.59;101515.56;5038354;28;45517;-68
2022/07/15 00:12:19;;;;;;;;;3.00;3.00;;;;;21.97;44.19;101537.16;5050279;28;45544;-66
2022/07/15 00:14:44;;;;;;;;;5.00;5.00;;;;;21.92;44.21;101527.75;5038779;28;45484;-65
2022/07/15 00:17:10;;;;;;;;;5.00;5.00;;;;;21.87;44.28;101522.72;5039342;28;45625;-67
2022/07/15 00:19:36;;;;;;;;;6.33;5.67;;;;;21.83;44.57;101544.81;5059064;28;46777;-66
2022/07/15 00:22:02;;;;;;;;;3.33;3.33;;;;;21.71;44.72;101525.94;5058744;28;45260;-66
2022/07/15 00:24:28;;;;;;;;;6.00;3.00;;;;;21.70;44.85;101545.03;5052936;28;45576;-67
2022/07/15 00:26:54;;;;;;;;;3.67;3.67;;;;;21.33;44.96;101498.66;5037917;28;45233;-67
2022/07/15 00:29:19;;;;;;;;;6.00;5.00;;;;;21.57;45.33;101539.81;5037439;28;45252;-66
2022/07/15 00:31:45;;;;;;;;;6.67;5.33;;;;;21.48;45.71;101551.44;5037690;28;45354;-66
2022/07/15 00:34:10;;;;;;;;;5.00;5.00;;;;;21.39;45.92;101557.69;5037621;28;45780;-63
2022/07/15 00:36:35;;;;;;;;;4.00;4.00;;;;;21.31;46.28;101555.63;5037828;28;45784;-65
2022/07/15 00:39:01;;;;;;;;;6.00;4.33;;;;;21.26;45.78;101547.06;5048218;28;46199;-64
2022/07/15 00:41:26;;;;;;;;;7.33;6.00;;;;;21.34;45.74;101563.47;5050338;28;45384;-62
2022/07/15 00:43:52;;;;;;;;;6.33;6.33;;;;;21.30;46.09;101567.44;5037684;28;45364;-64
2022/07/15 00:46:21;;;;;;;;;6.00;4.67;;;;;21.14;45.92;101554.34;5037701;28;45526;-64
2022/07/15 00:48:47;;;;;;;;;8.00;5.00;;;;;21.07;46.55;101563.94;5037263;28;45388;-63
2022/07/15 00:51:13;;;;;;;;;7.00;5.00;;;;;21.02;46.84;101578.84;5052820;28;45343;-67
2022/07/15 00:53:39;;;;;;;;;7.00;7.00;;;;;21.05;46.48;101574.03;5041820;28;45343;-67
2022/07/15 00:56:08;;;;;;;;;5.00;5.00;;;;;21.03;46.87;101570.59;5057687;28;45270;-66
2022/07/15 00:58:37;;;;;;;;;4.67;4.67;;;;;20.94;47.06;101584.03;5057531;28;46122;-63
2022/07/15 01:01:03;;;;;;;;;4.00;4.00;;;;;20.79;47.47;101581.63;5057583;28;45391;-63
2022/07/15 01:03:31;;;;;;;;;6.00;5.00;;;;;20.66;47.67;101567.44;5055987;28;45314;-65
2022/07/15 01:05:58;;;;;;;;;7.33;5.00;;;;;20.76;47.48;101589.16;5057421;28;45593;-62
2022/07/15 01:08:23;;;;;;;;;6.67;5.67;;;;;20.80;47.56;101591.47;5055857;28;45442;-61
2022/07/15 01:10:49;;;;;;;;;6.00;6.00;;;;;20.70;48.14;101592.34;5055547;28;45465;-67
2022/07/15 01:13:15;;;;;;;;;3.67;2.33;;;;;20.69;47.95;101593.34;5046431;28;45434;-68
2022/07/15 01:15:41;;;;;;;;;6.67;6.67;;;;;20.72;47.45;101590.41;5055988;28;45622;-67
2022/07/15 01:18:07;;;;;;;;;7.00;7.00;;;;;20.78;47.65;101589.88;5056949;28;45423;-67
2022/07/15 01:20:32;;;;;;;;;4.67;3.00;;;;;20.70;47.14;101587.78;5057485;28;45471;-65
2022/07/15 01:23:01;;;;;;;;;4.00;4.00;;;;;20.64;47.99;101591.03;5057086;28;45323;-67
2022/07/15 01:25:27;;;;;;;;;6.00;6.00;;;;;20.61;47.33;101594.84;5053772;28;45567;-65
2022/07/15 01:27:53;;;;;;;;;6.00;6.00;;;;;20.56;47.59;101591.66;5037020;28;46330;-67
2022/07/15 01:30:18;;;;;;;;;4.33;4.33;;;;;20.46;47.28;101582.59;5036562;28;45334;-67
2022/07/15 01:32:44;;;;;;;;;5.00;4.00;;;;;20.26;47.67;101577.91;5036866;28;45408;-70
2022/07/15 01:35:09;;;;;;;;;6.00;4.33;;;;;20.39;47.77;101591.28;5036868;28;45525;-68
2022/07/15 01:37:34;;;;;;;;;3.00;3.00;;;;;20.38;47.70;101597.69;5036897;28;46115;-68
2022/07/15 01:40:00;;;;;;;;;4.00;4.00;;;;;20.30;47.50;101590.19;5036866;28;45387;-68
2022/07/15 01:42:25;;;;;;;;;3.00;3.00;;;;;20.20;47.70;101584.69;5036340;28;45538;-67
2022/07/15 01:44:51;;;;;;;;;4.00;3.00;;;;;20.21;47.46;101601.75;5056348;28;45732;-64
2022/07/15 01:47:16;;;;;;;;;4.33;3.00;;;;;20.11;47.66;101592.66;5040965;28;45593;-68
2022/07/15 01:49:42;;;;;;;;;3.00;3.00;;;;;20.13;47.74;101596.09;5034952;28;45458;-70
2022/07/15 01:52:09;;;;;;;;;4.00;4.00;;;;;20.08;47.83;101607.28;5036426;28;45340;-65
2022/07/15 01:54:35;;;;;;;;;4.33;4.00;;;;;20.12;47.35;101599.78;5052455;28;45201;-65
2022/07/15 01:57:01;;;;;;;;;3.33;3.33;;;;;20.01;47.65;101581.72;5036147;28;45403;-63
2022/07/15 01:59:27;;;;;;;;;5.33;3.33;;;;;20.07;47.44;101583.09;5035875;28;45346;-64
2022/07/15 02:01:53;;;;;;;;;5.00;4.00;;;;;20.14;47.47;101595.09;5055895;28;45243;-62
2022/07/15 02:04:19;;;;;;;;;3.00;3.00;;;;;20.11;47.34;101590.81;5055533;28;45411;-63
2022/07/15 02:06:45;;;;;;;;;1.67;1.33;;;;;20.11;47.58;101592.66;5056567;28;47120;-65
2022/07/15 02:09:11;;;;;;;;;6.33;4.00;;;;;20.14;46.58;101589.72;5055989;28;45403;-66
2022/07/15 02:11:38;;;;;;;;;4.33;3.33;;;;;20.10;47.13;101586.41;5056634;28;45434;-70
2022/07/15 02:14:03;;;;;;;;;3.67;3.00;;;;;19.96;47.01;101576.72;5056230;28;45538;-65
2022/07/15 02:16:30;;;;;;;;;7.00;4.00;;;;;19.98;47.09;101590.94;5055065;27;45491;-64
2022/07/15 02:18:55;;;;;;;;;3.33;3.33;;;;;19.90;46.99;101571.78;5054320;28;45367;-64
2022/07/15 02:21:21;;;;;;;;;3.67;3.67;;;;;19.98;47.15;101595.47;5037824;28;45177;-66
2022/07/15 02:23:47;;;;;;;;;3.67;3.67;;;;;19.94;47.11;101585.91;5036108;28;45533;-62
2022/07/15 02:26:13;;;;;;;;;5.00;3.33;;;;;19.96;47.16;101592.06;5035791;28;46068;-67
2022/07/15 02:28:38;;;;;;;;;4.00;2.33;;;;;19.90;47.11;101587.97;5034878;28;45405;-69
2022/07/15 02:31:05;;;;;;;;;2.67;2.67;;;;;19.84;47.10;101596.59;5035747;28;45315;-65
2022/07/15 02:33:30;;;;;;;;;4.00;3.00;;;;;19.82;47.20;101600.38;5036555;28;45307;-65
2022/07/15 02:35:56;;;;;;;;;5.67;4.33;;;;;19.72;47.55;101590.31;5035455;28;45447;-63
2022/07/15 02:38:22;;;;;;;;;5.00;3.67;;;;;19.72;47.33;101603.81;5035608;28;45377;-67
2022/07/15 02:40:48;;;;;;;;;4.00;4.00;;;;;19.68;47.00;101588.84;5036253;28;45442;-63
2022/07/15 02:43:14;;;;;;;;;4.67;4.67;;;;;19.70;47.24;101596.81;5036251;28;45560;-66
2022/07/15 02:45:40;;;;;;;;;4.00;4.00;;;;;19.62;47.48;101596.53;5035907;28;45522;-65
2022/07/15 02:48:07;;;;;;;;;4.67;3.67;;;;;19.47;47.32;101579.69;5035811;28;45305;-65
2022/07/15 02:50:33;;;;;;;;;3.00;3.00;;;;;19.56;47.61;101588.94;5054029;28;45580;-64
2022/07/15 02:52:59;;;;;;;;;3.00;3.00;;;;;19.55;47.55;101587.22;5055997;28;45307;-63
2022/07/15 02:55:25;;;;;;;;;2.67;2.67;;;;;19.61;47.37;101597.53;5053280;28;46991;-64
2022/07/15 02:57:50;;;;;;;;;4.67;4.67;;;;;19.57;47.87;101599.63;5054023;28;45333;-64
2022/07/15 03:00:17;;;;;;;;;4.00;4.00;;;;;19.49;48.16;101606.53;5055860;28;45382;-64
2022/07/15 03:02:43;;;;;;;;;3.00;3.00;;;;;19.42;47.89;101609.72;5055292;28;45387;-64
2022/07/15 03:05:09;;;;;;;;;4.00;4.00;;;;;19.42;47.62;101596.25;5059962;28;46159;-65
2022/07/15 03:07:35;;;;;;;;;3.00;3.00;;;;;19.56;47.58;101605.13;5059088;28;45379;-66
2022/07/15 03:10:01;;;;;;;;;4.00;4.00;;;;;19.58;47.45;101605.88;5041267;28;45466;-69
2022/07/15 03:12:26;;;;;;;;;4.00;3.00;;;;;19.56;47.40;101616.78;5059502;28;45679;-64
2022/07/15 03:14:52;;;;;;;;;3.00;3.00;;;;;19.52;47.63;101617.09;5058856;28;46300;-65
2022/07/15 03:17:18;;;;;;;;;6.00;4.33;;;;;19.54;47.68;101620.56;5057691;28;45461;-65
2022/07/15 03:19:43;;;;;;;;;6.00;3.00;;;;;19.53;47.31;101610.72;5059068;28;45389;-66
2022/07/15 03:22:09;;;;;;;;;3.00;3.00;;;;;19.52;47.76;101619.78;5059127;28;45553;-65
2022/07/15 03:24:34;;;;;;;;;3.00;3.00;;;;;19.42;47.81;101625.91;5058850;28;45316;-66
2022/07/15 03:27:00;;;;;;;;;3.33;3.00;;;;;19.36;47.63;101623.66;5040418;28;45303;-66
2022/07/15 03:29:28;;;;;;;;;7.00;4.00;;;;;19.35;47.65;101621.09;5067667;28;45616;-65
2022/07/15 03:31:54;;;;;;;;;6.00;6.00;;;;;19.32;47.93;101613.25;5074783;27;45590;-66
2022/07/15 03:34:20;;;;;;;;;4.00;4.00;;;;;19.33;47.78;101610.41;5058522;28;45616;-65
2022/07/15 03:36:45;;;;;;;;;3.00;3.00;;;;;19.35;47.78;101604.91;5059018;27;45231;-66
2022/07/15 03:39:11;;;;;;;;;6.00;5.00;;;;;19.40;47.51;101610.78;5059364;28;45799;-63
2022/07/15 03:41:36;;;;;;;;;4.00;4.00;;;;;19.29;47.85;101602.69;5059192;28;45713;-69
2022/07/15 03:44:02;;;;;;;;;5.67;5.67;;;;;19.27;48.00;101597.41;5057586;28;45692;-69
2022/07/15 03:46:27;;;;;;;;;4.33;4.33;;;;;19.19;48.18;101588.19;5057257;28;45406;-67
2022/07/15 03:48:53;;;;;;;;;9.00;6.33;;;;;19.30;47.99;101607.97;5058600;28;45323;-67
2022/07/15 03:51:19;;;;;;;;;11.33;10.33;;;;;19.25;48.17;101599.34;5057442;28;45318;-67
2022/07/15 03:53:45;;;;;;;;;10.00;7.33;;;;;19.27;48.61;101599.22;5058888;28;46307;-68
2022/07/15 03:56:11;;;;;;;;;8.00;6.67;;;;;19.29;48.17;101605.41;5059930;28;45467;-67
2022/07/15 03:58:37;;;;;;;;;11.00;7.00;;;;;19.27;48.48;101616.31;5059160;28;45339;-65
2022/07/15 04:01:03;;;;;;;;;6.00;6.00;;;;;19.17;48.83;101612.56;5058255;28;45588;-69
2022/07/15 04:03:29;;;;;;;;;5.00;5.00;;;;;19.04;48.89;101603.69;5057460;28;45656;-65
2022/07/15 04:05:54;;;;;;;;;4.00;4.00;;;;;19.11;49.23;101621.13;5058497;28;45270;-68
2022/07/15 04:08:20;;;;;;;;;4.00;4.00;;;;;19.09;48.82;101620.38;5056990;28;45359;-64
2022/07/15 04:10:45;;;;;;;;;6.00;6.00;;;;;19.05;49.07;101616.19;5058459;28;45533;-68
2022/07/15 04:13:11;;;;;;;;;5.00;5.00;;;;;19.01;49.16;101615.59;5057753;28;46225;-70
2022/07/15 04:15:36;;;;;;;;;8.00;5.00;;;;;19.05;49.02;101627.84;5056539;28;45350;-63
2022/07/15 04:18:01;;;;;;;;;3.00;1.67;;;;;19.03;49.41;101627.09;5039671;28;45318;-66
2022/07/15 04:20:27;;;;;;;;;5.00;5.00;;;;;18.95;49.87;101629.50;5050612;28;45521;-63
2022/07/15 04:22:53;;;;;;;;;5.00;5.00;;;;;18.81;49.69;101621.59;5057980;28;45883;-62
2022/07/15 04:25:20;;;;;;;;;5.33;5.33;;;;;18.89;49.54;101631.81;5058076;28;45490;-63
2022/07/15 04:27:48;;;;;;;;;6.33;5.00;;;;;18.89;49.91;101639.91;5058271;28;45450;-62
2022/07/15 04:30:14;;;;;;;;;5.00;5.00;;;;;18.85;49.83;101632.00;5058337;28;45200;-62
2022/07/15 04:32:41;;;;;;;;;8.00;5.33;;;;;18.82;49.80;101617.91;5057679;28;45517;-69
2022/07/15 04:35:07;;;;;;;;;4.33;4.33;;;;;18.92;49.60;101631.56;5056742;28;45381;-68
2022/07/15 04:37:32;;;;;;;;;7.00;6.00;;;;;18.68;49.81;101602.78;5055161;28;45319;-65
2022/07/15 04:39:58;;;;;;;;;8.00;6.67;;;;;18.78;50.14;101628.06;5057909;28;45552;-62
2022/07/15 04:42:23;;;;;;;;;6.00;6.00;;;;;18.70;50.84;101626.91;5057865;28;45657;-63
2022/07/15 04:44:49;;;;;;;;;10.00;10.00;;;;;18.65;50.92;101645.25;5058224;28;45446;-65
2022/07/15 04:47:15;;;;;;;;;5.33;4.00;;;;;18.62;50.90;101646.31;5057608;28;45794;-68
2022/07/15 04:52:25;;;;;;;;;5.00;5.00;;;;;18.45;51.28;101633.19;5057062;28;45990;-68
2022/07/15 04:54:51;;;;;;;;;6.00;5.00;;;;;18.35;51.46;101632.13;5057182;28;45450;-66
2022/07/15 04:57:17;;;;;;;;;5.00;5.00;;;;;18.30;51.47;101623.53;5057711;28;45370;-70
2022/07/15 04:59:43;;;;;;;;;4.00;4.00;;;;;18.40;51.21;101625.47;5057643;28;45640;-69
2022/07/15 05:02:08;;;;;;;;;6.00;6.00;;;;;18.40;51.98;101640.75;5056570;28;45346;-68
2022/07/15 05:04:33;;;;;;;;;6.33;6.33;;;;;18.44;51.94;101653.03;5057496;28;45382;-66
2022/07/15 05:06:59;;;;;;;;;7.33;6.00;;;;;18.26;51.57;101623.75;5056142;28;45292;-68
2022/07/15 05:09:24;;;;;;;;;6.00;3.00;;;;;18.33;51.85;101644.84;5056335;28;45644;-67
2022/07/15 05:11:50;;;;;;;;;5.33;5.33;;;;;18.40;52.23;101656.91;5055789;28;47717;-65
2022/07/15 05:14:15;;;;;;;;;5.00;5.00;;;;;18.40;52.19;101667.69;5057013;28;45240;-69
2022/07/15 05:16:41;;;;;;;;;12.67;8.00;;;;;18.33;52.56;101666.41;5057745;28;45310;-69
2022/07/15 05:19:06;;;;;;;;;8.00;6.00;;;;;18.28;52.75;101664.03;5057546;28;45446;-70
2022/07/15 05:21:32;;;;;;;;;11.67;9.00;;;;;18.34;52.73;101678.88;5056987;28;45502;-62
2022/07/15 05:23:57;;;;;;;;;7.33;7.33;;;;;18.34;52.75;101662.72;5054578;28;45339;-66
2022/07/15 05:26:23;;;;;;;;;8.67;7.00;;;;;18.26;52.61;101666.84;5056310;28;45396;-66
2022/07/15 05:28:49;;;;;;;;;6.00;6.00;;;;;18.28;52.50;101653.28;5072669;28;45430;-68
2022/07/15 05:31:14;;;;;;;;;6.67;6.67;;;;;18.37;52.90;101676.00;5056519;28;46504;-68
2022/07/15 05:33:39;;;;;;;;;5.00;5.00;;;;;18.41;52.22;101674.78;5056706;28;45259;-66
2022/07/15 05:36:05;;;;;;;;;7.33;7.33;;;;;18.49;52.66;101673.28;5055641;28;45421;-66
2022/07/15 05:38:31;;;;;;;;;6.00;6.00;;;;;18.54;52.64;101681.03;5054522;28;45560;-67
2022/07/15 05:40:56;;;;;;;;;8.00;5.00;;;;;18.44;52.68;101663.78;5054719;28;45836;-67
2022/07/15 05:43:24;;;;;;;;;11.00;7.00;;;;;18.38;52.94;101686.66;5056570;28;45459;-64
2022/07/15 05:45:50;;;;;;;;;5.67;4.33;;;;;18.41;53.32;101693.66;5056109;28;45423;-63
2022/07/15 05:48:16;;;;;;;;;5.00;5.00;;;;;18.45;53.81;101697.84;5055085;28;45505;-63
2022/07/15 05:50:42;;;;;;;;;14.67;13.00;;;;;18.44;53.32;101696.13;5055443;28;45476;-68
2022/07/15 05:53:07;;;;;;;;;12.67;6.67;;;;;18.27;53.25;101668.56;5053241;28;45438;-65
2022/07/15 05:55:33;;;;;;;;;9.33;9.33;;;;;18.42;53.70;101701.63;5055033;28;45274;-66
2022/07/15 05:57:58;;;;;;;;;9.33;9.33;;;;;18.39;53.25;101696.47;5055418;28;45542;-66
2022/07/15 06:00:24;;;;;;;;;14.00;10.67;;;;;18.42;53.86;101695.38;5056087;28;45539;-68
2022/07/15 06:02:49;;;;;;;;;10.67;10.33;;;;;18.31;54.37;101697.97;5055141;28;45510;-72
2022/07/15 06:05:14;;;;;;;;;8.33;8.00;;;;;18.33;54.18;101699.56;5056490;28;45408;-69
2022/07/15 06:07:41;;;;;;;;;10.67;8.00;;;;;18.26;54.37;101684.84;5053842;28;45258;-63
2022/07/15 06:10:08;;;;;;;;;6.33;5.00;;;;;18.44;54.22;101698.81;5035130;28;45354;-57
2022/07/15 06:12:34;;;;;;;;;7.00;7.00;;;;;18.48;54.26;101698.47;5036154;28;45933;-57
2022/07/15 06:14:59;;;;;;;;;10.00;7.33;;;;;18.50;54.25;101696.56;5055187;28;45275;-54
2022/07/15 06:17:25;;;;;;;;;7.33;7.33;;;;;18.52;54.87;101691.06;5038197;28;45557;-52
2022/07/15 06:19:50;;;;;;;;;6.67;6.67;;;;;18.58;54.22;101687.91;5055983;28;45819;-52
2022/07/15 06:22:16;;;;;;;;;6.67;5.33;;;;;18.60;54.17;101687.78;5050254;28;45247;-53
2022/07/15 06:24:41;;;;;;;;;5.67;5.67;;;;;18.60;53.92;101685.94;5035941;28;45353;-52
2022/07/15 06:27:07;;;;;;;;;8.00;8.00;;;;;18.71;54.00;101688.75;5036315;28;45288;-56
2022/07/15 06:29:32;;;;;;;;;10.67;5.67;;;;;18.74;53.80;101693.94;5035750;28;45356;-54
2022/07/15 06:31:58;;;;;;;;;7.00;7.00;;;;;18.83;53.27;101692.41;5047029;28;45246;-60
2022/07/15 06:34:24;;;;;;;;;8.00;8.00;;;;;18.91;53.23;101687.31;5055015;28;45480;-57
2022/07/15 06:36:50;;;;;;;;;9.00;7.00;;;;;18.93;52.68;101685.38;5055433;28;45301;-58
2022/07/15 06:39:16;;;;;;;;;6.00;6.00;;;;;19.02;52.32;101691.94;5057255;28;46341;-55
2022/07/15 06:41:42;;;;;;;;;7.33;6.33;;;;;19.11;52.59;101697.47;5056871;28;45356;-56
2022/07/15 06:44:07;;;;;;;;;6.00;6.00;;;;;19.15;52.27;101698.13;5059761;28;45330;-56
2022/07/15 06:46:33;;;;;;;;;7.00;6.00;;;;;18.99;52.13;101671.41;5058930;28;45630;-60
2022/07/15 06:48:59;;;;;;;;;6.00;5.67;;;;;19.13;51.82;101695.53;5058769;28;45401;-66
2022/07/15 06:51:25;;;;;;;;;7.00;6.00;;;;;19.26;51.54;101703.56;5058208;28;45317;-63
2022/07/15 06:53:50;;;;;;;;;6.00;5.00;;;;;19.26;51.79;101700.84;5059387;28;45356;-64
2022/07/15 06:56:16;;;;;;;;;8.67;5.33;;;;;19.41;51.56;101704.25;5059699;28;45487;-65
2022/07/15 06:58:41;;;;;;;;;9.67;6.33;;;;;19.39;51.37;101709.75;5075067;28;46383;-65
2022/07/15 07:01:07;;;;;;;;;6.67;6.67;;;;;19.41;50.43;101701.56;5059843;28;45204;-66
2022/07/15 07:03:33;;;;;;;;;8.00;6.67;;;;;19.47;50.51;101697.53;5057516;28;45469;-66
2022/07/15 07:05:58;;;;;;;;;5.00;5.00;;;;;19.53;50.73;101703.34;5059454;28;45540;-65
2022/07/15 07:08:23;;;;;;;;;4.00;4.00;;;;;19.56;50.38;101711.22;5059444;28;45805;-65
2022/07/15 07:10:49;;;;;;;;;8.33;5.67;;;;;19.65;50.21;101712.34;5059078;28;45409;-64
2022/07/15 07:13:15;;;;;;;;;6.33;5.00;;;;;19.69;50.30;101703.06;5059044;28;45350;-66
2022/07/15 07:15:40;;;;;;;;;6.00;6.00;;;;;19.79;49.94;101706.75;5059125;28;45564;-66
2022/07/15 07:18:06;;;;;;;;;6.33;6.33;;;;;19.83;49.62;101708.25;5058527;28;45687;-65
2022/07/15 07:20:31;;;;;;;;;5.67;5.00;;;;;19.91;49.14;101708.50;5058715;28;45338;-64
2022/07/15 07:22:57;;;;;;;;;4.67;3.67;;;;;19.89;49.55;101696.94;5059282;28;45432;-66
2022/07/15 07:25:23;;;;;;;;;4.67;4.00;;;;;19.95;48.62;101699.19;5059152;28;45318;-64
2022/07/15 07:27:48;;;;;;;;;7.33;6.00;;;;;19.98;48.39;101693.53;5058616;28;46212;-64
2022/07/15 07:30:14;;;;;;;;;9.00;6.00;;;;;20.08;48.72;101707.19;5058661;28;45426;-64
2022/07/15 07:32:39;;;;;;;;;7.67;6.67;;;;;20.08;48.22;101698.25;5058582;28;45387;-65
2022/07/15 07:35:05;;;;;;;;;5.67;5.00;;;;;20.03;47.85;101703.97;5059073;28;45225;-66
2022/07/15 07:37:35;;;;;;;;;4.00;4.00;;;;;20.03;48.35;101704.84;5058295;28;46073;-64
2022/07/15 07:40:00;;;;;;;;;10.00;6.33;;;;;20.12;48.50;101697.88;5058387;28;45448;-65
2022/07/15 07:42:26;;;;;;;;;5.33;5.33;;;;;20.21;48.51;101693.59;5059187;28;45383;-64
2022/07/15 07:44:51;;;;;;;;;4.00;4.00;;;;;20.23;47.55;101691.63;5058792;28;45524;-64
2022/07/15 07:47:16;;;;;;;;;5.00;5.00;;;;;20.30;47.32;101692.84;5058079;28;45463;-64
2022/07/15 07:49:42;;;;;;;;;4.33;4.33;;;;;20.40;46.77;101701.94;5058273;28;45408;-65
2022/07/15 07:52:07;;;;;;;;;3.00;3.00;;;;;20.44;45.79;101689.91;5058409;28;45386;-65
2022/07/15 07:54:33;;;;;;;;;4.00;4.00;;;;;20.50;44.13;101689.44;5057403;28;45377;-63
2022/07/15 07:56:58;;;;;;;;;2.00;2.00;;;;;20.51;44.51;101680.34;5057104;28;47818;-64
2022/07/15 07:59:24;;;;;;;;;1.33;1.33;;;;;20.54;43.90;101685.50;5058135;28;45494;-65
2022/07/15 08:01:49;;;;;;;;;5.00;4.00;;;;;20.57;44.46;101685.28;5058273;28;45251;-64
2022/07/15 08:04:15;;;;;;;;;4.33;4.33;;;;;20.55;44.16;101676.41;5058373;28;45247;-63
2022/07/15 08:06:41;;;;;;;;;4.67;4.67;;;;;20.67;44.47;101687.22;5058001;28;45483;-64
2022/07/15 08:09:07;;;;;;;;;5.00;5.00;;;;;20.75;44.46;101676.66;5058500;27;45423;-65
2022/07/15 08:11:33;;;;;;;;;4.00;4.00;;;;;20.79;43.85;101683.50;5057118;28;45177;-64
2022/07/15 08:13:58;;;;;;;;;5.00;4.00;;;;;20.79;44.78;101667.28;5057663;28;45618;-64
2022/07/15 08:16:24;;;;;;;;;3.00;3.00;;;;;20.88;43.25;101685.47;5058129;28;46336;-65
2022/07/15 08:18:49;;;;;;;;;2.00;2.00;;;;;20.83;42.67;101675.03;5057517;28;45383;-63
2022/07/15 08:21:14;;;;;;;;;6.00;5.00;;;;;20.83;43.21;101666.03;5057729;28;45459;-65
2022/07/15 08:23:40;;;;;;;;;3.00;3.00;;;;;20.91;42.70;101660.88;5056550;28;45661;-64
2022/07/15 08:26:07;;;;;;;;;4.00;4.00;;;;;21.08;41.97;101675.69;5057619;28;46484;-65
2022/07/15 08:28:33;;;;;;;;;6.00;3.00;;;;;21.20;41.08;101656.59;5057605;28;45295;-65
2022/07/15 08:30:58;;;;;;;;;3.00;3.00;;;;;21.68;40.52;101650.75;5057852;28;45298;-65
2022/07/15 08:33:24;;;;;;;;;3.00;3.00;;;;;22.27;40.51;101676.38;5056769;28;45638;-65
2022/07/15 08:35:50;;;;;;;;;3.00;3.00;;;;;22.62;38.92;101668.63;5057465;28;45343;-64
2022/07/15 08:38:15;;;;;;;;;4.00;4.00;;;;;23.02;39.52;101680.47;5056198;28;45438;-65
2022/07/15 08:40:42;;;;;;;;;4.33;4.33;;;;;23.52;37.53;101668.50;5057519;28;45303;-65
2022/07/15 08:43:10;;;;;;;;;3.00;3.00;;;;;23.93;36.29;101669.19;5056344;28;45715;-64
2022/07/15 08:45:37;;;;;;;;;3.00;3.00;;;;;24.24;35.49;101671.69;5057151;28;47258;-64
2022/07/15 08:48:07;;;;;;;;;3.00;3.00;;;;;24.33;34.08;101662.66;5057021;28;45680;-64
2022/07/15 08:50:34;;;;;;;;;2.75;2.75;;;;;24.73;35.37;101658.72;5057248;28;45345;-64
2022/07/15 08:53:00;;;;;;;;;3.75;2.00;;;;;25.19;32.97;101661.31;5056806;28;45457;-66
2022/07/15 08:55:26;;;;;;;;;1.50;1.50;;;;;25.58;33.19;101663.72;5056094;28;46786;-64
2022/07/15 08:57:53;;;;;;;;;3.00;2.00;;;;;26.02;33.43;101650.09;5057214;28;45433;-63
2022/07/15 09:00:28;;;;;;;;;3.25;3.25;;;;;26.43;31.83;101629.38;5055442;28;45430;-66
2022/07/15 09:02:55;;;;;;;;;2.00;2.00;;;;;26.88;31.46;101633.63;5055882;28;45609;-64
2022/07/15 09:05:22;;;;;;;;;2.25;1.75;;;;;27.31;32.55;101641.56;5056692;28;47549;-65
2022/07/15 09:08:10;;;;;;;;;2.00;2.00;;;;;27.65;31.16;101623.31;5055787;28;45437;-65
2022/07/15 09:10:49;;;;;;;;;3.50;3.50;;;;;28.21;28.60;101639.59;5056038;28;45362;-65
2022/07/15 09:13:40;;;;;;;;;1.75;1.75;;;;;28.45;29.71;101635.09;5057430;28;45424;-64
2022/07/15 09:16:19;;;;;;;;;3.20;1.60;;;;;28.58;27.25;101640.84;5056329;28;46601;-66
2022/07/15 09:18:45;;;;;;;;;2.20;1.80;;;;;28.64;29.27;101637.38;5056452;28;45403;-64
2022/07/15 09:21:25;;;;;;;;;1.80;1.80;;;;;28.88;29.25;101644.66;5055216;28;45308;-64
2022/07/15 09:23:53;;;;;;;;;1.60;1.60;;;;;29.18;26.08;101639.34;5056855;28;45504;-64
2022/07/15 09:26:21;;;;;;;;;1.40;1.40;;;;;29.37;27.89;101642.44;5056592;28;45500;-63
2022/07/15 09:28:49;;;;;;;;;1.60;1.60;;;;;29.60;26.44;101652.56;5056739;28;45261;-66
2022/07/15 09:34:02;;;;;;;;;4.40;4.40;;;;;30.05;26.30;101637.91;5056913;28;45301;-65
2022/07/15 09:36:30;;;;;;;;;1.80;1.80;;;;;30.36;25.51;101639.63;5054974;28;45398;-66
2022/07/15 09:38:57;;;;;;;;;2.00;2.00;;;;;30.50;23.80;101625.88;5056572;28;45402;-66
2022/07/15 09:41:28;;;;;;;;;1.80;1.80;;;;;30.77;25.78;101629.81;5055381;28;45442;-65
2022/07/15 09:44:02;;;;;;;;;2.00;2.00;;;;;30.97;23.28;101630.03;5056643;28;45445;-64
2022/07/15 09:46:49;;;;;;;;;2.00;2.00;;;;;31.25;24.57;101621.03;5056128;28;45575;-64
2022/07/15 09:49:27;;;;;;;;;1.00;1.00;;;;;31.46;24.13;101622.94;5056284;28;45311;-65
2022/07/15 09:51:56;;;;;;;;;1.00;1.00;;;;;31.61;22.79;101620.94;5056794;28;45409;-64
2022/07/15 09:54:31;;;;;;;;;1.40;1.40;;;;;31.87;24.36;101621.16;5056924;28;45546;-65
2022/07/15 09:56:58;;;;;;;;;1.60;1.60;;;;;31.94;20.54;101607.47;5056764;28;45336;-66
2022/07/15 09:59:24;;;;;;;;;0.20;0.20;;;;;31.66;21.53;101627.56;5057013;28;45338;-65
2022/07/15 10:01:50;;;;;;;;;0.80;0.80;;;;;31.18;21.17;101620.97;5057175;28;45508;-64
2022/07/15 10:04:19;;;;;;;;;0.20;0.20;;;;;31.43;23.24;101613.19;5057543;28;45305;-64
2022/07/15 10:06:47;;;;;;;;;1.80;1.80;;;;;31.76;23.01;101621.72;5055618;28;46200;-65
2022/07/15 10:09:13;;;;;;;;;0.80;0.80;;;;;31.83;21.91;101624.53;5056334;28;45324;-64
2022/07/15 10:11:44;;;;;;;;;0.75;0.75;;;;;31.93;22.47;101614.88;5056556;28;45436;-65
2022/07/15 10:14:21;;;;;;;;;0.00;0.00;;;;;32.04;20.34;101624.47;5055439;28;45262;-66
2022/07/15 10:17:09;;;;;;;;;1.00;1.00;;;;;31.77;21.72;101625.31;5056295;28;45502;-64
2022/07/15 10:19:52;;;;;;;;;1.20;1.20;;;;;31.95;21.02;101615.53;5056610;28;45411;-64
2022/07/15 10:22:51;;;;;;;;;1.00;1.00;;;;;31.79;20.40;101613.09;5056664;28;45325;-64
2022/07/15 10:25:32;;;;;;;;;2.80;2.80;;;;;31.45;21.51;101611.09;5056597;28;45345;-64
2022/07/15 10:28:09;;;;;;;;;0.80;0.80;;;;;31.06;21.34;101606.03;5056020;28;46225;-65
2022/07/15 10:30:37;;;;;;;;;1.00;1.00;;;;;30.88;22.15;101597.41;5056480;28;45420;-65
2022/07/15 10:33:05;;;;;;;;;1.00;1.00;;;;;30.66;21.85;101604.75;5054517;28;45393;-65
2022/07/15 10:35:44;;;;;;;;;0.80;0.80;;;;;30.33;21.74;101591.44;5056495;28;45314;-65
2022/07/15 10:38:35;;;;;;;;;2.60;2.60;;;;;29.92;23.05;101604.75;5055849;28;45283;-65
2022/07/15 10:41:01;;;;;;;;;2.60;2.60;;;;;29.27;22.72;101600.72;5056007;28;45402;-66
2022/07/15 10:43:41;;;;;;;;;2.75;2.00;;;;;28.68;23.58;101591.38;5055981;28;45552;-68
2022/07/15 10:46:28;;;;;;;;;3.00;1.00;;;;;28.06;24.74;101600.34;5056843;28;45301;-66
2022/07/15 10:48:59;;;;;;;;;1.20;1.20;;;;;28.04;25.15;101596.06;5055846;28;45948;-65
2022/07/15 10:51:37;;;;;;;;;2.80;2.80;;;;;27.93;25.50;101586.38;5056447;28;45276;-66
2022/07/15 10:54:09;;;;;;;;;2.60;1.00;;;;;27.73;25.17;101585.03;5056251;28;45319;-66
2022/07/15 10:56:42;;;;;;;;;8.00;2.75;;;;;27.41;25.74;101591.38;5056339;28;45442;-65
2022/07/15 10:59:11;;;;;;;;;1.00;1.00;;;;;27.32;25.00;101582.31;5056033;28;45345;-65
2022/07/15 11:01:38;;;;;;;;;14.75;12.25;;;;;27.04;26.57;101579.94;5056024;28;45246;-65
2022/07/15 11:04:22;;;;;;;;;5.00;5.00;;;;;26.94;26.55;101590.13;5055560;28;45231;-65
2022/07/15 11:07:03;;;;;;;;;13.00;10.00;;;;;26.69;25.81;101575.59;5054377;28;45342;-64
2022/07/15 11:09:52;;;;;;;;;10.25;7.00;;;;;26.55;26.06;101583.56;5055106;28;46056;-65
2022/07/15 11:12:44;;;;;;;;;3.00;3.00;;;;;26.34;26.02;101576.66;5055422;28;45245;-66
2022/07/15 11:15:17;;;;;;;;;1.50;1.50;;;;;26.21;26.80;101569.94;5055887;28;45395;-66
2022/07/15 11:17:49;;;;;;;;;1.75;1.75;;;;;26.12;26.34;101583.53;5054739;28;45547;-65
2022/07/15 11:20:20;;;;;;;;;2.50;0.75;;;;;26.14;26.21;101569.72;5055393;28;45932;-65
2022/07/15 11:22:49;;;;;;;;;1.20;1.20;;;;;26.25;26.33;101572.19;5053927;28;45255;-65
2022/07/15 11:25:24;;;;;;;;;1.25;1.25;;;;;26.32;26.59;101562.31;5039376;28;45286;-65
2022/07/15 11:27:58;;;;;;;;;1.75;1.00;;;;;26.33;26.37;101569.50;5058803;28;45532;-65
2022/07/15 11:30:24;;;;;;;;;3.00;1.00;;;;;26.42;26.30;101568.50;5057495;28;47168;-66
2022/07/15 11:32:58;;;;;;;;;2.00;2.00;;;;;26.37;26.14;101554.53;5058832;28;45355;-65
2022/07/15 11:35:24;;;;;;;;;1.25;1.25;;;;;26.34;26.80;101557.56;5057821;28;45285;-65